RYR6NY EIDW-EIKY
Flight info
| Callsign | RYR6NY |
|---|---|
| Flight time | 0h 39m |
| Altitude | 24000 |
| Route | OLONO4E OLONO DCT ABAGU DCT LUNIG |
| Aircraft | B738/M-SDE3FGILRWY/SB1 |
Departure
| Time | 2026-04-21 15:31 |
|---|---|
| Airport | Dublin Airport (EIDW) |
Arrival
| Time | 2026-04-21 16:10 |
|---|---|
| Airport | Kerry Airport (EIKY) |
| Time | Latitude | Longitude | Altitude | Speed | Heading |
|---|---|---|---|---|---|
| 2026-04-21 15:12 | 53.43015 | -6.25074 | 210 ft | 0 kts | 5° |
| 2026-04-21 15:21 | 53.42993 | -6.25077 | 214 ft | 4 kts | 5° |
| 2026-04-21 15:22 | 53.42971 | -6.25081 | 215 ft | 4 kts | 356° |
| 2026-04-21 15:22 | 53.42956 | -6.25067 | 223 ft | 4 kts | 278° |
| 2026-04-21 15:22 | 53.42954 | -6.25024 | 213 ft | 4 kts | 275° |
| 2026-04-21 15:22 | 53.42953 | -6.25008 | 217 ft | 0 kts | 275° |
| 2026-04-21 15:25 | 53.42955 | -6.25049 | 213 ft | 10 kts | 275° |
| 2026-04-21 15:25 | 53.42960 | -6.25175 | 210 ft | 12 kts | 273° |
| 2026-04-21 15:25 | 53.42926 | -6.25325 | 210 ft | 14 kts | 210° |
| 2026-04-21 15:26 | 53.42839 | -6.25275 | 218 ft | 24 kts | 156° |
| 2026-04-21 15:26 | 53.42725 | -6.25370 | 211 ft | 22 kts | 225° |
| 2026-04-21 15:26 | 53.42622 | -6.25552 | 215 ft | 21 kts | 226° |
| 2026-04-21 15:26 | 53.42518 | -6.25726 | 210 ft | 21 kts | 224° |
| 2026-04-21 15:27 | 53.42418 | -6.25895 | 210 ft | 21 kts | 226° |
| 2026-04-21 15:27 | 53.42318 | -6.26070 | 213 ft | 21 kts | 226° |
| 2026-04-21 15:27 | 53.42266 | -6.26288 | 210 ft | 21 kts | 269° |
| 2026-04-21 15:27 | 53.42279 | -6.26522 | 218 ft | 20 kts | 276° |
| 2026-04-21 15:28 | 53.42292 | -6.26749 | 210 ft | 19 kts | 274° |
| 2026-04-21 15:28 | 53.42305 | -6.27005 | 210 ft | 25 kts | 276° |
| 2026-04-21 15:28 | 53.42321 | -6.27287 | 210 ft | 23 kts | 275° |
| 2026-04-21 15:28 | 53.42335 | -6.27552 | 210 ft | 23 kts | 275° |
| 2026-04-21 15:29 | 53.42350 | -6.27810 | 218 ft | 22 kts | 276° |
| 2026-04-21 15:29 | 53.42366 | -6.28104 | 216 ft | 26 kts | 275° |
| 2026-04-21 15:29 | 53.42382 | -6.28395 | 215 ft | 25 kts | 275° |
| 2026-04-21 15:29 | 53.42400 | -6.28720 | 210 ft | 31 kts | 275° |
| 2026-04-21 15:30 | 53.42408 | -6.28993 | 214 ft | 23 kts | 251° |
| 2026-04-21 15:30 | 53.42288 | -6.29071 | 212 ft | 15 kts | 174° |
| 2026-04-21 15:30 | 53.42239 | -6.28944 | 211 ft | 15 kts | 95° |
| 2026-04-21 15:30 | 53.42222 | -6.28652 | 214 ft | 51 kts | 95° |
| 2026-04-21 15:31 | 53.42168 | -6.27630 | 208 ft | 123 kts | 95° |
| 2026-04-21 15:31 | 53.42077 | -6.25920 | 402 ft | 161 kts | 95° |
| 2026-04-21 15:31 | 53.41954 | -6.23910 | 937 ft | 182 kts | 96° |
| 2026-04-21 15:31 | 53.41825 | -6.21871 | 1942 ft | 170 kts | 96° |
| 2026-04-21 15:32 | 53.41691 | -6.19824 | 2451 ft | 188 kts | 96° |
| 2026-04-21 15:32 | 53.41558 | -6.17499 | 2680 ft | 211 kts | 95° |
| 2026-04-21 15:32 | 53.41434 | -6.14932 | 2908 ft | 228 kts | 95° |
| 2026-04-21 15:32 | 53.41299 | -6.12241 | 3332 ft | 235 kts | 95° |
| 2026-04-21 15:33 | 53.41151 | -6.09442 | 3666 ft | 249 kts | 95° |
| 2026-04-21 15:33 | 53.40990 | -6.06485 | 4142 ft | 259 kts | 95° |
| 2026-04-21 15:33 | 53.40696 | -6.03503 | 4918 ft | 261 kts | 112° |
| 2026-04-21 15:33 | 53.39625 | -6.01083 | 5696 ft | 262 kts | 141° |
| 2026-04-21 15:34 | 53.37993 | -5.99750 | 6434 ft | 265 kts | 169° |
| 2026-04-21 15:34 | 53.36156 | -5.99885 | 7196 ft | 268 kts | 198° |
| 2026-04-21 15:34 | 53.34574 | -6.01513 | 7974 ft | 271 kts | 225° |
| 2026-04-21 15:34 | 53.33389 | -6.03976 | 8760 ft | 274 kts | 235° |
| 2026-04-21 15:35 | 53.32313 | -6.06633 | 9522 ft | 278 kts | 237° |
| 2026-04-21 15:35 | 53.31264 | -6.09316 | 10289 ft | 282 kts | 237° |
| 2026-04-21 15:35 | 53.30148 | -6.12175 | 10584 ft | 306 kts | 237° |
| 2026-04-21 15:35 | 53.28940 | -6.15251 | 10932 ft | 324 kts | 237° |
| 2026-04-21 15:36 | 53.27679 | -6.18433 | 11604 ft | 331 kts | 236° |
| 2026-04-21 15:36 | 53.26396 | -6.21650 | 12390 ft | 334 kts | 236° |
| 2026-04-21 15:36 | 53.25096 | -6.24889 | 13176 ft | 338 kts | 236° |
| 2026-04-21 15:36 | 53.23774 | -6.28170 | 13931 ft | 343 kts | 236° |
| 2026-04-21 15:37 | 53.22430 | -6.31494 | 14692 ft | 348 kts | 236° |
| 2026-04-21 15:37 | 53.21071 | -6.34847 | 15510 ft | 350 kts | 236° |
| 2026-04-21 15:37 | 53.19698 | -6.38227 | 16272 ft | 354 kts | 236° |
| 2026-04-21 15:37 | 53.18305 | -6.41650 | 17002 ft | 359 kts | 236° |
| 2026-04-21 15:38 | 53.16900 | -6.45095 | 17830 ft | 359 kts | 236° |
| 2026-04-21 15:38 | 53.15499 | -6.48528 | 18735 ft | 357 kts | 236° |
| 2026-04-21 15:38 | 53.14106 | -6.51935 | 19621 ft | 355 kts | 236° |
| 2026-04-21 15:38 | 53.12721 | -6.55318 | 20494 ft | 353 kts | 236° |
| 2026-04-21 15:39 | 53.11341 | -6.58684 | 21306 ft | 352 kts | 236° |
| 2026-04-21 15:39 | 53.09964 | -6.62038 | 22085 ft | 351 kts | 236° |
| 2026-04-21 15:39 | 53.08589 | -6.65383 | 22861 ft | 349 kts | 236° |
| 2026-04-21 15:39 | 53.07218 | -6.68715 | 23585 ft | 350 kts | 236° |
| 2026-04-21 15:40 | 53.05840 | -6.72059 | 23930 ft | 350 kts | 236° |
| 2026-04-21 15:40 | 53.04461 | -6.75399 | 23991 ft | 351 kts | 236° |
| 2026-04-21 15:40 | 53.03086 | -6.78727 | 24001 ft | 348 kts | 235° |
| 2026-04-21 15:40 | 53.01716 | -6.82039 | 24009 ft | 347 kts | 235° |
| 2026-04-21 15:41 | 53.00348 | -6.85339 | 24015 ft | 347 kts | 235° |
| 2026-04-21 15:41 | 52.98980 | -6.88639 | 24010 ft | 347 kts | 235° |
| 2026-04-21 15:41 | 52.97611 | -6.91934 | 24009 ft | 347 kts | 235° |
| 2026-04-21 15:41 | 52.96242 | -6.95226 | 24007 ft | 347 kts | 235° |
| 2026-04-21 15:42 | 52.94871 | -6.98518 | 24005 ft | 347 kts | 235° |
| 2026-04-21 15:42 | 52.93498 | -7.01810 | 24003 ft | 347 kts | 235° |
| 2026-04-21 15:42 | 52.92125 | -7.05099 | 24002 ft | 347 kts | 235° |
| 2026-04-21 15:42 | 52.90749 | -7.08391 | 24001 ft | 348 kts | 235° |
| 2026-04-21 15:43 | 52.89371 | -7.11683 | 24001 ft | 348 kts | 235° |
| 2026-04-21 15:43 | 52.87991 | -7.14974 | 24003 ft | 348 kts | 235° |
| 2026-04-21 15:43 | 52.86610 | -7.18266 | 24004 ft | 348 kts | 235° |
| 2026-04-21 15:43 | 52.85227 | -7.21556 | 24001 ft | 349 kts | 235° |
| 2026-04-21 15:44 | 52.83840 | -7.24851 | 24001 ft | 349 kts | 235° |
| 2026-04-21 15:44 | 52.82454 | -7.28140 | 24002 ft | 349 kts | 235° |
| 2026-04-21 15:44 | 52.81067 | -7.31429 | 24002 ft | 349 kts | 235° |
| 2026-04-21 15:44 | 52.79677 | -7.34721 | 24003 ft | 349 kts | 235° |
| 2026-04-21 15:45 | 52.78286 | -7.38009 | 24000 ft | 349 kts | 235° |
| 2026-04-21 15:45 | 52.76895 | -7.41294 | 23999 ft | 349 kts | 235° |
| 2026-04-21 15:45 | 52.75504 | -7.44573 | 24001 ft | 349 kts | 235° |
| 2026-04-21 15:45 | 52.74113 | -7.47849 | 24000 ft | 349 kts | 235° |
| 2026-04-21 15:46 | 52.72721 | -7.51123 | 24001 ft | 348 kts | 235° |
| 2026-04-21 15:46 | 52.71329 | -7.54394 | 24003 ft | 348 kts | 235° |
| 2026-04-21 15:46 | 52.69937 | -7.57659 | 24001 ft | 348 kts | 235° |
| 2026-04-21 15:46 | 52.68544 | -7.60923 | 24000 ft | 348 kts | 235° |
| 2026-04-21 15:47 | 52.67151 | -7.64184 | 24001 ft | 348 kts | 235° |
| 2026-04-21 15:47 | 52.65757 | -7.67440 | 24001 ft | 348 kts | 234° |
| 2026-04-21 15:47 | 52.64363 | -7.70694 | 24001 ft | 348 kts | 234° |
| 2026-04-21 15:47 | 52.62969 | -7.73944 | 24001 ft | 348 kts | 234° |
| 2026-04-21 15:48 | 52.61576 | -7.77187 | 23996 ft | 345 kts | 234° |
| 2026-04-21 15:48 | 52.60215 | -7.80352 | 23988 ft | 341 kts | 234° |
| 2026-04-21 15:48 | 52.58866 | -7.83485 | 23982 ft | 330 kts | 234° |
| 2026-04-21 15:48 | 52.57562 | -7.86510 | 23981 ft | 318 kts | 234° |
| 2026-04-21 15:49 | 52.56309 | -7.89412 | 23978 ft | 305 kts | 234° |
| 2026-04-21 15:49 | 52.55105 | -7.92200 | 23982 ft | 293 kts | 234° |
| 2026-04-21 15:49 | 52.53949 | -7.94872 | 23979 ft | 281 kts | 234° |
| 2026-04-21 15:49 | 52.52836 | -7.97443 | 23981 ft | 272 kts | 234° |
| 2026-04-21 15:50 | 52.51744 | -7.99964 | 24001 ft | 273 kts | 234° |
| 2026-04-21 15:50 | 52.50619 | -8.02557 | 24019 ft | 283 kts | 234° |
| 2026-04-21 15:50 | 52.49463 | -8.05218 | 24018 ft | 288 kts | 234° |
| 2026-04-21 15:50 | 52.48305 | -8.07884 | 24001 ft | 286 kts | 234° |
| 2026-04-21 15:51 | 52.47154 | -8.10528 | 23990 ft | 284 kts | 234° |
| 2026-04-21 15:51 | 52.46012 | -8.13150 | 23993 ft | 281 kts | 234° |
| 2026-04-21 15:51 | 52.44879 | -8.15750 | 23991 ft | 280 kts | 234° |
| 2026-04-21 15:51 | 52.43749 | -8.18341 | 23993 ft | 279 kts | 234° |
| 2026-04-21 15:52 | 52.42622 | -8.20921 | 23989 ft | 280 kts | 234° |
| 2026-04-21 15:52 | 52.41480 | -8.23531 | 24008 ft | 284 kts | 234° |
| 2026-04-21 15:52 | 52.40699 | -8.25314 | 23889 ft | 288 kts | 234° |
| 2026-04-21 15:52 | 52.39304 | -8.29097 | 22926 ft | 303 kts | 249° |
| 2026-04-21 15:53 | 52.38580 | -8.32440 | 21901 ft | 320 kts | 251° |
| 2026-04-21 15:53 | 52.37865 | -8.35949 | 21117 ft | 327 kts | 251° |
| 2026-04-21 15:53 | 52.37151 | -8.39475 | 20561 ft | 325 kts | 251° |
| 2026-04-21 15:53 | 52.36438 | -8.42969 | 20046 ft | 322 kts | 251° |
| 2026-04-21 15:54 | 52.35726 | -8.46419 | 19548 ft | 318 kts | 251° |
| 2026-04-21 15:54 | 52.35016 | -8.49830 | 19033 ft | 315 kts | 251° |
| 2026-04-21 15:54 | 52.34309 | -8.53211 | 18511 ft | 313 kts | 251° |
| 2026-04-21 15:54 | 52.33603 | -8.56565 | 17988 ft | 311 kts | 251° |
| 2026-04-21 15:55 | 52.32902 | -8.59889 | 17480 ft | 308 kts | 251° |
| 2026-04-21 15:55 | 52.32203 | -8.63187 | 16966 ft | 306 kts | 251° |
| 2026-04-21 15:55 | 52.31509 | -8.66459 | 16470 ft | 303 kts | 251° |
| 2026-04-21 15:55 | 52.30820 | -8.69701 | 15966 ft | 301 kts | 251° |
| 2026-04-21 15:56 | 52.30135 | -8.72917 | 15465 ft | 299 kts | 251° |
| 2026-04-21 15:56 | 52.29454 | -8.76109 | 14969 ft | 296 kts | 251° |
| 2026-04-21 15:56 | 52.28776 | -8.79278 | 14471 ft | 294 kts | 251° |
| 2026-04-21 15:56 | 52.28103 | -8.82421 | 13975 ft | 292 kts | 251° |
| 2026-04-21 15:57 | 52.27434 | -8.85542 | 13483 ft | 290 kts | 251° |
| 2026-04-21 15:57 | 52.26777 | -8.88603 | 12994 ft | 288 kts | 251° |
| 2026-04-21 15:57 | 52.26117 | -8.91672 | 12572 ft | 284 kts | 250° |
| 2026-04-21 15:57 | 52.25469 | -8.94681 | 12228 ft | 277 kts | 250° |
| 2026-04-21 15:58 | 52.24837 | -8.97606 | 11930 ft | 270 kts | 250° |
| 2026-04-21 15:58 | 52.24222 | -9.00458 | 11640 ft | 263 kts | 250° |
| 2026-04-21 15:58 | 52.23607 | -9.03299 | 11367 ft | 262 kts | 250° |
| 2026-04-21 15:58 | 52.23009 | -9.06059 | 11102 ft | 263 kts | 250° |
| 2026-04-21 15:59 | 52.22593 | -9.07978 | 10922 ft | 270 kts | 250° |
| 2026-04-21 15:59 | 52.21745 | -9.11884 | 10543 ft | 278 kts | 250° |
| 2026-04-21 15:59 | 52.21104 | -9.14828 | 10229 ft | 272 kts | 250° |
| 2026-04-21 15:59 | 52.20485 | -9.17670 | 10072 ft | 259 kts | 250° |
| 2026-04-21 16:00 | 52.19894 | -9.20380 | 9839 ft | 252 kts | 250° |
| 2026-04-21 16:00 | 52.19300 | -9.23098 | 9604 ft | 258 kts | 250° |
| 2026-04-21 16:00 | 52.18691 | -9.25885 | 9345 ft | 264 kts | 250° |
| 2026-04-21 16:00 | 52.18066 | -9.28737 | 9068 ft | 269 kts | 250° |
| 2026-04-21 16:01 | 52.17430 | -9.31639 | 8615 ft | 275 kts | 250° |
| 2026-04-21 16:01 | 52.16786 | -9.34569 | 8294 ft | 274 kts | 250° |
| 2026-04-21 16:01 | 52.16352 | -9.36545 | 8088 ft | 274 kts | 250° |
| 2026-04-21 16:01 | 52.15716 | -9.39432 | 7780 ft | 267 kts | 250° |
| 2026-04-21 16:02 | 52.15100 | -9.42230 | 7492 ft | 258 kts | 250° |
| 2026-04-21 16:02 | 52.14502 | -9.44939 | 7227 ft | 250 kts | 250° |
| 2026-04-21 16:02 | 52.13922 | -9.47564 | 6967 ft | 243 kts | 250° |
| 2026-04-21 16:02 | 52.13355 | -9.50123 | 6716 ft | 239 kts | 250° |
| 2026-04-21 16:03 | 52.12789 | -9.52681 | 6469 ft | 241 kts | 250° |
| 2026-04-21 16:03 | 52.12219 | -9.55249 | 6212 ft | 248 kts | 250° |
| 2026-04-21 16:03 | 52.11620 | -9.57949 | 5980 ft | 258 kts | 250° |
| 2026-04-21 16:03 | 52.11012 | -9.60686 | 5703 ft | 257 kts | 250° |
| 2026-04-21 16:04 | 52.10406 | -9.63409 | 5423 ft | 255 kts | 250° |
| 2026-04-21 16:04 | 52.09803 | -9.66119 | 5162 ft | 254 kts | 250° |
| 2026-04-21 16:04 | 52.09201 | -9.68812 | 4888 ft | 253 kts | 250° |
| 2026-04-21 16:04 | 52.08601 | -9.71492 | 4622 ft | 252 kts | 250° |
| 2026-04-21 16:05 | 52.08011 | -9.74130 | 4450 ft | 242 kts | 251° |
| 2026-04-21 16:05 | 52.07791 | -9.76720 | 4326 ft | 224 kts | 280° |
| 2026-04-21 16:05 | 52.08386 | -9.78932 | 4128 ft | 210 kts | 308° |
| 2026-04-21 16:05 | 52.09419 | -9.80501 | 3879 ft | 200 kts | 328° |
| 2026-04-21 16:06 | 52.10709 | -9.81090 | 3611 ft | 191 kts | 5° |
| 2026-04-21 16:06 | 52.11894 | -9.80319 | 3395 ft | 185 kts | 40° |
| 2026-04-21 16:06 | 52.12604 | -9.78617 | 3157 ft | 184 kts | 71° |
| 2026-04-21 16:06 | 52.13019 | -9.76658 | 2918 ft | 183 kts | 71° |
| 2026-04-21 16:07 | 52.13433 | -9.74702 | 2671 ft | 182 kts | 71° |
| 2026-04-21 16:07 | 52.13841 | -9.72759 | 2420 ft | 180 kts | 71° |
| 2026-04-21 16:07 | 52.14233 | -9.70879 | 2188 ft | 170 kts | 71° |
| 2026-04-21 16:07 | 52.14599 | -9.69123 | 1966 ft | 157 kts | 71° |
| 2026-04-21 16:08 | 52.15240 | -9.66051 | 1806 ft | 138 kts | 71° |
| 2026-04-21 16:08 | 52.15547 | -9.64582 | 1795 ft | 137 kts | 71° |
| 2026-04-21 16:08 | 52.15856 | -9.63098 | 1666 ft | 142 kts | 71° |
| 2026-04-21 16:09 | 52.16163 | -9.61588 | 1405 ft | 141 kts | 72° |
| 2026-04-21 16:09 | 52.16466 | -9.60086 | 1066 ft | 140 kts | 71° |
| 2026-04-21 16:09 | 52.16776 | -9.58617 | 756 ft | 134 kts | 70° |
| 2026-04-21 16:09 | 52.17093 | -9.57196 | 586 ft | 135 kts | 72° |
| 2026-04-21 16:10 | 52.17397 | -9.55713 | 375 ft | 139 kts | 71° |
| 2026-04-21 16:10 | 52.17706 | -9.54236 | 178 ft | 135 kts | 71° |
| 2026-04-21 16:10 | 52.17992 | -9.52855 | 92 ft | 102 kts | 71° |
| 2026-04-21 16:10 | 52.18102 | -9.52311 | 92 ft | 22 kts | 83° |
| 2026-04-21 16:11 | 52.18109 | -9.52244 | 89 ft | 3 kts | 32° |
| 2026-04-21 16:11 | 52.18123 | -9.52264 | 91 ft | 4 kts | 276° |
| 2026-04-21 16:11 | 52.18090 | -9.52386 | 90 ft | 18 kts | 247° |
| 2026-04-21 16:11 | 52.18048 | -9.52582 | 90 ft | 19 kts | 250° |
| 2026-04-21 16:12 | 52.18007 | -9.52781 | 92 ft | 18 kts | 251° |
| 2026-04-21 16:12 | 52.17967 | -9.52976 | 90 ft | 19 kts | 251° |
| 2026-04-21 16:12 | 52.17924 | -9.53176 | 90 ft | 18 kts | 251° |
| 2026-04-21 16:12 | 52.17882 | -9.53370 | 92 ft | 18 kts | 251° |
| 2026-04-21 16:13 | 52.17878 | -9.53550 | 91 ft | 17 kts | 322° |
| 2026-04-21 16:13 | 52.17987 | -9.53616 | 91 ft | 16 kts | 346° |
| 2026-04-21 16:13 | 52.18086 | -9.53575 | 91 ft | 4 kts | 1° |
| 2026-04-21 16:13 | 52.18111 | -9.53582 | 90 ft | 0 kts | 346° |